createdAt,value
2023-08-12T00:00:21.823Z,62.43
2023-08-12T00:01:01.766Z,62.62
2023-08-12T00:01:35.278Z,62.77
2023-08-12T00:02:10.770Z,62.60
2023-08-12T00:02:46.263Z,62.44
2023-08-12T00:03:19.860Z,62.83
2023-08-12T00:03:55.818Z,62.51
2023-08-12T00:04:30.980Z,62.02
2023-08-12T00:05:05.478Z,62.66
2023-08-12T00:06:13.807Z,62.90
2023-08-12T00:06:49.652Z,63.02
2023-08-12T00:07:58.112Z,62.73
2023-08-12T00:08:32.163Z,62.03
2023-08-12T00:09:08.915Z,62.87
2023-08-12T00:09:44.801Z,62.78
2023-08-12T00:10:17.886Z,63.14
2023-08-12T00:10:50.831Z,63.10
2023-08-12T00:11:25.568Z,62.47
2023-08-12T00:12:00.772Z,62.75
2023-08-12T00:12:37.246Z,62.55
2023-08-12T00:13:11.178Z,63.17
2023-08-12T00:13:46.804Z,63.43
2023-08-12T00:14:20.568Z,63.65
2023-08-12T00:14:56.122Z,63.51
2023-08-12T00:15:29.896Z,63.55
2023-08-12T00:16:04.462Z,63.04
2023-08-12T00:16:40.025Z,63.01
2023-08-12T00:17:14.349Z,63.44
2023-08-12T00:17:48.112Z,63.53
2023-08-12T00:18:22.842Z,63.80
2023-08-12T00:18:57.873Z,63.52
2023-08-12T00:19:33.416Z,63.39
2023-08-12T00:20:09.297Z,63.78
2023-08-12T00:20:43.558Z,64.24
2023-08-12T00:21:49.771Z,63.35
2023-08-12T00:22:24.883Z,63.60
2023-08-12T00:23:00.664Z,63.96
2023-08-12T00:23:41.987Z,64.37
2023-08-12T00:24:20.089Z,64.42
2023-08-12T00:24:54.363Z,63.83
2023-08-12T00:25:30.027Z,63.60
2023-08-12T00:26:04.542Z,64.29
2023-08-12T00:26:39.793Z,63.92
2023-08-12T00:27:14.812Z,64.34
2023-08-12T00:27:49.976Z,63.86
2023-08-12T00:28:26.143Z,63.92
2023-08-12T00:28:59.880Z,64.42
2023-08-12T00:29:32.866Z,64.85
2023-08-12T00:30:08.849Z,64.83
2023-08-12T00:30:43.890Z,63.95
2023-08-12T00:31:19.193Z,64.80
2023-08-12T00:31:55.736Z,64.65
2023-08-12T00:32:30.751Z,64.34
2023-08-12T00:33:04.144Z,63.89
2023-08-12T00:33:38.102Z,64.38
2023-08-12T00:34:15.938Z,64.19
2023-08-12T00:34:50.980Z,64.67
2023-08-12T00:35:24.909Z,64.77
2023-08-12T00:35:59.119Z,65.02
2023-08-12T00:36:33.006Z,64.14
2023-08-12T00:37:09.095Z,64.05
2023-08-12T00:37:44.901Z,64.55
2023-08-12T00:38:20.952Z,64.39
2023-08-12T00:38:54.994Z,64.39
2023-08-12T00:39:28.930Z,64.79
2023-08-12T00:40:03.167Z,64.86
2023-08-12T00:40:37.328Z,64.37
2023-08-12T00:41:12.769Z,64.37
2023-08-12T00:41:47.956Z,64.16
2023-08-12T00:42:21.968Z,64.18
2023-08-12T00:42:55.982Z,64.56
2023-08-12T00:43:28.938Z,64.40
2023-08-12T00:44:05.160Z,64.44
2023-08-12T00:44:38.995Z,64.23
2023-08-12T00:45:14.434Z,64.17
2023-08-12T00:45:50.051Z,64.31
2023-08-12T00:46:25.793Z,64.68
2023-08-12T00:47:01.493Z,64.50
2023-08-12T00:47:37.605Z,64.00
2023-08-12T00:48:14.776Z,63.42
2023-08-12T00:48:51.601Z,63.23
2023-08-12T00:49:29.089Z,62.84
2023-08-12T00:50:03.712Z,62.77
2023-08-12T00:50:40.378Z,62.97
2023-08-12T00:51:18.250Z,62.76
2023-08-12T00:51:55.418Z,62.25
2023-08-12T00:52:31.372Z,62.22
2023-08-12T00:53:07.765Z,62.21
2023-08-12T00:53:44.281Z,62.40
2023-08-12T00:54:19.142Z,62.23
2023-08-12T00:54:53.565Z,62.31
2023-08-12T00:55:26.898Z,62.69
2023-08-12T00:56:02.003Z,63.08
2023-08-12T00:56:38.928Z,62.92
2023-08-12T00:57:47.104Z,62.30
2023-08-12T00:58:21.095Z,62.16
2023-08-12T00:58:55.623Z,62.63
2023-08-12T00:59:31.818Z,62.79
2023-08-12T01:00:09.338Z,62.65
2023-08-12T01:00:43.606Z,62.41
2023-08-12T01:01:19.443Z,62.36
2023-08-12T01:01:55.261Z,62.03
2023-08-12T01:03:03.082Z,62.13
2023-08-12T01:03:37.548Z,62.58
2023-08-12T01:04:12.926Z,62.05
2023-08-12T01:04:46.135Z,62.37
2023-08-12T01:05:21.657Z,62.39
2023-08-12T01:05:57.167Z,63.18
2023-08-12T01:06:30.960Z,62.82
2023-08-12T01:07:05.284Z,62.32
2023-08-12T01:07:39.329Z,63.31
2023-08-12T01:08:14.905Z,62.28
2023-08-12T01:08:50.145Z,62.70
2023-08-12T01:09:24.112Z,63.23
2023-08-12T01:09:58.144Z,63.30
2023-08-12T01:10:38.120Z,62.88
2023-08-12T01:11:22.378Z,62.83
2023-08-12T01:12:14.444Z,62.61
2023-08-12T01:13:14.534Z,62.15
2023-08-12T01:14:00.354Z,62.29
2023-08-12T01:15:04.822Z,61.95
2023-08-12T01:15:44.463Z,62.17
2023-08-12T01:16:24.027Z,62.47
2023-08-12T01:17:05.553Z,62.15
2023-08-12T01:18:15.768Z,62.42
2023-08-12T01:18:52.082Z,62.72
2023-08-12T01:19:36.594Z,62.57
2023-08-12T01:20:16.189Z,62.57
2023-08-12T01:20:52.690Z,62.93
2023-08-12T01:21:31.478Z,63.02
2023-08-12T01:22:10.992Z,62.67
2023-08-12T01:22:46.538Z,62.92
2023-08-12T01:23:18.687Z,62.96
2023-08-12T01:24:25.767Z,62.83
2023-08-12T01:25:03.939Z,63.27
2023-08-12T01:25:37.997Z,63.06
2023-08-12T01:26:09.963Z,63.48
2023-08-12T01:26:42.975Z,62.79
2023-08-12T01:27:15.667Z,62.64
2023-08-12T01:28:21.328Z,63.08
2023-08-12T01:28:54.998Z,62.41
2023-08-12T01:30:01.529Z,63.50
2023-08-12T01:30:49.385Z,62.38
2023-08-12T01:31:38.826Z,63.97
2023-08-12T01:32:40.200Z,63.06
2023-08-12T01:33:28.756Z,62.65
2023-08-12T01:34:17.978Z,62.88
2023-08-12T01:34:59.410Z,62.44
2023-08-12T01:35:46.964Z,63.17
2023-08-12T01:36:22.864Z,63.07
2023-08-12T01:37:31.421Z,63.54
2023-08-12T01:38:09.552Z,63.59
2023-08-12T01:39:21.086Z,64.18
2023-08-12T01:39:57.964Z,64.17
2023-08-12T01:40:34.524Z,64.44
2023-08-12T01:41:12.619Z,64.79
2023-08-12T01:41:48.142Z,64.47
2023-08-12T01:42:23.915Z,64.63
2023-08-12T01:42:59.038Z,64.43
2023-08-12T01:43:33.572Z,65.15
2023-08-12T01:44:07.746Z,64.33
2023-08-12T01:44:42.942Z,65.01
2023-08-12T01:45:20.012Z,64.73
2023-08-12T01:45:56.208Z,65.12
2023-08-12T01:46:32.753Z,65.77
2023-08-12T01:47:06.773Z,65.02
2023-08-12T01:47:40.274Z,65.62
2023-08-12T01:48:15.926Z,65.83
2023-08-12T01:48:51.016Z,65.78
2023-08-12T01:49:26.445Z,66.08
2023-08-12T01:50:01.969Z,66.05
2023-08-12T01:50:35.921Z,65.80
2023-08-12T01:51:11.001Z,65.69
2023-08-12T01:51:45.129Z,65.97
2023-08-12T01:52:19.006Z,66.19
2023-08-12T01:52:53.167Z,66.24
2023-08-12T01:53:27.004Z,66.46
2023-08-12T01:54:35.973Z,66.76
2023-08-12T01:55:11.128Z,66.91
2023-08-12T01:55:46.143Z,67.76
2023-08-12T01:56:19.889Z,67.92
2023-08-12T01:56:54.828Z,67.62
2023-08-12T01:57:29.902Z,67.67
2023-08-12T01:58:04.987Z,67.93
2023-08-12T01:58:38.946Z,67.15
2023-08-12T01:59:13.812Z,67.87
2023-08-12T01:59:53.740Z,68.05
2023-08-12T02:00:28.971Z,67.86
2023-08-12T02:01:01.973Z,68.43
2023-08-12T02:01:36.090Z,68.13
2023-08-12T02:02:08.971Z,67.69
2023-08-12T02:02:43.602Z,67.49
2023-08-12T02:03:18.938Z,68.54
2023-08-12T02:03:53.288Z,67.08
2023-08-12T02:04:29.334Z,67.96
2023-08-12T02:05:05.169Z,66.60
2023-08-12T02:05:38.970Z,66.18
2023-08-12T02:06:12.838Z,66.25
2023-08-12T02:06:47.850Z,66.27
2023-08-12T02:07:22.938Z,66.63
2023-08-12T02:07:57.956Z,66.04
2023-08-12T02:08:32.898Z,65.75
2023-08-12T02:09:08.175Z,65.90
2023-08-12T02:10:16.050Z,65.29
2023-08-12T02:11:21.929Z,66.10
2023-08-12T02:11:56.933Z,65.83
2023-08-12T02:12:32.083Z,65.61
2023-08-12T02:13:39.995Z,65.28
2023-08-12T02:14:48.049Z,65.74
2023-08-12T02:15:22.266Z,65.41
2023-08-12T02:15:57.928Z,65.25
2023-08-12T02:16:33.607Z,65.51
2023-08-12T02:17:08.315Z,64.89
2023-08-12T02:17:44.117Z,65.32
2023-08-12T02:18:18.226Z,65.08
2023-08-12T02:18:52.329Z,64.76
2023-08-12T02:19:28.160Z,64.88
2023-08-12T02:20:05.355Z,64.87
2023-08-12T02:20:42.651Z,65.04
2023-08-12T02:21:15.934Z,65.18
2023-08-12T02:21:50.894Z,65.26
2023-08-12T02:22:24.385Z,65.14
2023-08-12T02:22:59.913Z,64.76
2023-08-12T02:23:35.092Z,65.29
2023-08-12T02:24:09.569Z,65.32
2023-08-12T02:25:16.457Z,65.09
2023-08-12T02:25:55.509Z,65.42
2023-08-12T02:26:31.895Z,65.26
2023-08-12T02:27:06.826Z,65.47
2023-08-12T02:27:42.431Z,65.75
2023-08-12T02:28:18.150Z,65.97
2023-08-12T02:28:52.127Z,65.37
2023-08-12T02:29:27.096Z,65.76
2023-08-12T02:30:01.136Z,65.67
2023-08-12T02:30:40.020Z,65.88
2023-08-12T02:31:15.318Z,65.27
2023-08-12T02:31:51.276Z,66.01
2023-08-12T02:32:25.166Z,66.27
2023-08-12T02:32:59.137Z,65.58
2023-08-12T02:33:33.130Z,65.30
2023-08-12T02:34:06.914Z,64.59
2023-08-12T02:35:14.996Z,64.08
2023-08-12T02:35:53.493Z,65.05
2023-08-12T02:36:28.879Z,64.70
2023-08-12T02:37:04.144Z,64.03
2023-08-12T02:37:38.239Z,63.73
2023-08-12T02:38:12.458Z,64.27
2023-08-12T02:38:46.337Z,64.37
2023-08-12T02:39:20.242Z,64.57
2023-08-12T02:39:55.577Z,64.44
2023-08-12T02:40:30.951Z,64.68
2023-08-12T02:41:05.981Z,64.88
2023-08-12T02:41:41.338Z,64.96
2023-08-12T02:42:16.870Z,64.37
2023-08-12T02:42:51.881Z,64.79
2023-08-12T02:43:27.075Z,64.63
2023-08-12T02:44:02.422Z,64.95
2023-08-12T02:44:35.887Z,65.08
2023-08-12T02:45:11.309Z,65.36
2023-08-12T02:45:46.922Z,64.91
2023-08-12T02:46:22.273Z,65.30
2023-08-12T02:46:55.994Z,64.93
2023-08-12T02:47:31.183Z,65.77
2023-08-12T02:48:05.786Z,65.83
2023-08-12T02:48:38.910Z,65.97
2023-08-12T02:49:14.029Z,65.94
2023-08-12T02:49:48.823Z,65.77
2023-08-12T02:50:24.137Z,66.21
2023-08-12T02:50:59.771Z,66.04
2023-08-12T02:51:54.054Z,66.57
2023-08-12T02:52:28.430Z,66.61
2023-08-12T02:53:04.395Z,66.92
2023-08-12T02:53:40.171Z,66.53
2023-08-12T02:54:14.121Z,67.06
2023-08-12T02:55:20.139Z,66.50
2023-08-12T02:55:54.177Z,67.02
2023-08-12T02:56:28.356Z,66.42
2023-08-12T02:57:01.870Z,67.34
2023-08-12T02:57:36.817Z,66.90
2023-08-12T02:58:12.075Z,66.71
2023-08-12T02:58:50.957Z,67.26
2023-08-12T02:59:27.244Z,67.18
2023-08-12T03:00:05.474Z,67.85
2023-08-12T03:00:44.974Z,67.45
2023-08-12T03:01:20.383Z,67.59
2023-08-12T03:01:54.273Z,67.21
2023-08-12T03:02:28.117Z,67.88
2023-08-12T03:03:02.009Z,68.10
2023-08-12T03:03:36.071Z,68.34
2023-08-12T03:04:10.215Z,67.75
2023-08-12T03:04:44.075Z,67.84
2023-08-12T03:05:18.230Z,67.81
2023-08-12T03:05:52.306Z,67.79
2023-08-12T03:06:25.922Z,67.93
2023-08-12T03:07:01.030Z,67.92
2023-08-12T03:07:35.012Z,68.30
2023-08-12T03:08:09.932Z,68.02
2023-08-12T03:08:44.898Z,68.29
2023-08-12T03:09:19.808Z,68.66
2023-08-12T03:10:27.683Z,67.69
2023-08-12T03:11:04.190Z,67.77
2023-08-12T03:12:12.397Z,67.11
2023-08-12T03:12:48.321Z,66.71
2023-08-12T03:13:23.905Z,66.52
2023-08-12T03:13:58.955Z,66.81
2023-08-12T03:14:34.076Z,66.57
2023-08-12T03:15:43.313Z,66.34
2023-08-12T03:16:19.148Z,65.83
2023-08-12T03:16:54.974Z,65.78
2023-08-12T03:17:28.369Z,66.62
2023-08-12T03:18:04.513Z,65.66
2023-08-12T03:18:39.924Z,66.10
2023-08-12T03:19:14.919Z,66.27
2023-08-12T03:19:51.227Z,65.93
2023-08-12T03:20:25.054Z,65.96
2023-08-12T03:20:59.124Z,65.87
2023-08-12T03:22:05.570Z,66.20
2023-08-12T03:22:41.014Z,67.21
2023-08-12T03:23:16.464Z,67.18
2023-08-12T03:23:52.505Z,67.14
2023-08-12T03:24:27.951Z,67.21
2023-08-12T03:25:02.950Z,66.84
2023-08-12T03:25:35.944Z,66.72
2023-08-12T03:26:10.892Z,67.26
2023-08-12T03:26:43.944Z,67.41
2023-08-12T03:27:19.005Z,67.25
2023-08-12T03:27:51.992Z,67.50
2023-08-12T03:28:27.671Z,67.79
2023-08-12T03:29:03.090Z,67.45
2023-08-12T03:29:37.045Z,67.41
2023-08-12T03:30:11.763Z,68.02
2023-08-12T03:30:52.978Z,68.15
2023-08-12T03:32:00.956Z,67.77
2023-08-12T03:32:36.259Z,67.96
2023-08-12T03:33:10.083Z,67.85
2023-08-12T03:33:45.377Z,67.87
2023-08-12T03:34:21.259Z,67.64
2023-08-12T03:34:56.768Z,67.36
2023-08-12T03:35:30.440Z,66.55
2023-08-12T03:36:04.380Z,66.68
2023-08-12T03:36:38.090Z,67.56
2023-08-12T03:37:12.418Z,66.89
2023-08-12T03:37:47.956Z,67.22
2023-08-12T03:38:22.916Z,66.74
2023-08-12T03:38:57.949Z,67.07
2023-08-12T03:39:32.932Z,66.88
2023-08-12T03:40:08.882Z,67.02
2023-08-12T03:40:44.456Z,66.66
2023-08-12T03:41:18.133Z,67.03
2023-08-12T03:41:52.285Z,67.44
2023-08-12T03:42:27.925Z,67.20
2023-08-12T03:43:02.930Z,67.07
2023-08-12T03:43:38.932Z,67.72
2023-08-12T03:44:46.962Z,67.66
2023-08-12T03:45:20.855Z,68.25
2023-08-12T03:45:54.016Z,67.97
2023-08-12T03:46:29.167Z,68.64
2023-08-12T03:47:03.023Z,68.11
2023-08-12T03:47:37.962Z,68.48
2023-08-12T03:48:13.425Z,68.39
2023-08-12T03:48:47.222Z,68.56
2023-08-12T03:49:22.530Z,68.35
2023-08-12T03:49:56.144Z,68.46
2023-08-12T03:50:30.332Z,69.02
2023-08-12T03:51:05.996Z,69.05
2023-08-12T03:51:41.369Z,68.98
2023-08-12T03:52:14.933Z,68.75
2023-08-12T03:52:49.918Z,68.61
2023-08-12T03:53:23.210Z,68.85
2023-08-12T03:53:57.332Z,68.79
2023-08-12T03:54:31.031Z,68.52
2023-08-12T03:55:38.902Z,69.49
2023-08-12T03:56:16.441Z,69.17
2023-08-12T03:56:49.905Z,69.31
2023-08-12T03:57:25.046Z,69.12
2023-08-12T03:58:01.736Z,69.09
2023-08-12T03:58:35.564Z,69.19
2023-08-12T03:59:11.301Z,69.20
2023-08-12T03:59:51.604Z,68.91
2023-08-12T04:00:27.349Z,69.31
2023-08-12T04:01:01.299Z,69.31
2023-08-12T04:01:34.693Z,68.97
2023-08-12T04:02:43.175Z,69.19
2023-08-12T04:03:17.026Z,69.34
2023-08-12T04:04:25.378Z,68.87
2023-08-12T04:04:59.677Z,69.93
2023-08-12T04:05:35.065Z,69.42
2023-08-12T04:06:09.248Z,69.40
2023-08-12T04:06:45.076Z,69.89
2023-08-12T04:07:20.981Z,69.68
2023-08-12T04:07:56.330Z,69.98
2023-08-12T04:09:05.423Z,69.66
2023-08-12T04:09:41.288Z,69.92
2023-08-12T04:10:16.598Z,70.06
2023-08-12T04:10:51.981Z,70.05
2023-08-12T04:11:25.363Z,69.92
2023-08-12T04:11:59.028Z,69.74
2023-08-12T04:12:32.177Z,70.23
2023-08-12T04:13:07.662Z,70.13
2023-08-12T04:14:15.356Z,69.64
2023-08-12T04:14:51.054Z,69.77
2023-08-12T04:15:25.002Z,69.83
2023-08-12T04:16:00.035Z,69.37
2023-08-12T04:16:35.239Z,69.38
2023-08-12T04:17:09.306Z,69.86
2023-08-12T04:17:45.451Z,69.65
2023-08-12T04:18:19.811Z,70.34
2023-08-12T04:18:53.644Z,68.93
2023-08-12T04:19:29.313Z,68.93
2023-08-12T04:20:07.615Z,69.59
2023-08-12T04:20:40.955Z,70.14
2023-08-12T04:21:15.958Z,70.00
2023-08-12T04:21:51.046Z,70.06
2023-08-12T04:22:23.937Z,69.60
2023-08-12T04:22:58.898Z,69.60
2023-08-12T04:23:34.368Z,69.21
2023-08-12T04:24:41.402Z,69.16
2023-08-12T04:25:17.120Z,69.68
2023-08-12T04:26:24.970Z,69.33
2023-08-12T04:26:58.124Z,69.80
2023-08-12T04:27:32.171Z,69.39
2023-08-12T04:28:06.909Z,69.47
2023-08-12T04:28:42.241Z,69.25
2023-08-12T04:29:17.624Z,69.77
2023-08-12T04:29:52.981Z,68.81
2023-08-12T04:31:00.928Z,68.25
2023-08-12T04:31:36.045Z,68.26
2023-08-12T04:32:11.098Z,67.98
2023-08-12T04:32:45.096Z,67.84
2023-08-12T04:33:19.034Z,68.00
2023-08-12T04:33:54.232Z,68.24
2023-08-12T04:34:30.027Z,67.86
2023-08-12T04:35:06.302Z,67.82
2023-08-12T04:35:41.639Z,67.84
2023-08-12T04:36:17.492Z,68.07
2023-08-12T04:36:53.069Z,67.82
2023-08-12T04:37:29.283Z,68.08
2023-08-12T04:38:06.606Z,67.62
2023-08-12T04:38:41.976Z,67.46
2023-08-12T04:39:17.107Z,67.58
2023-08-12T04:39:51.780Z,67.92
2023-08-12T04:40:27.252Z,67.73
2023-08-12T04:41:00.317Z,68.16
2023-08-12T04:41:35.140Z,68.24
2023-08-12T04:42:09.115Z,68.28
2023-08-12T04:42:43.943Z,67.96
2023-08-12T04:43:19.001Z,67.96
2023-08-12T04:43:54.306Z,67.37
2023-08-12T04:44:28.320Z,67.62
2023-08-12T04:45:04.937Z,67.86
2023-08-12T04:45:40.064Z,67.95
2023-08-12T04:46:13.131Z,67.27
2023-08-12T04:46:48.476Z,67.40
2023-08-12T04:47:23.964Z,67.08
2023-08-12T04:47:59.447Z,67.44
2023-08-12T04:48:38.182Z,67.45
2023-08-12T04:49:13.031Z,67.51
2023-08-12T04:49:46.984Z,67.34
2023-08-12T04:50:22.325Z,67.43
2023-08-12T04:51:01.286Z,67.53
2023-08-12T04:51:36.074Z,66.79
2023-08-12T04:52:10.960Z,66.66
2023-08-12T04:52:47.433Z,66.58
2023-08-12T04:53:21.086Z,66.65
2023-08-12T04:53:56.588Z,66.76
2023-08-12T04:54:32.318Z,66.53
2023-08-12T04:55:08.806Z,66.55
2023-08-12T04:55:46.337Z,66.61
2023-08-12T04:56:21.358Z,65.85
2023-08-12T04:56:55.089Z,66.19
2023-08-12T04:57:31.954Z,66.09
2023-08-12T04:58:07.160Z,65.50
2023-08-12T04:58:41.059Z,66.04
2023-08-12T04:59:16.100Z,65.46
2023-08-12T05:00:23.788Z,65.67
2023-08-12T05:01:32.675Z,65.76
2023-08-12T05:02:06.175Z,67.46
2023-08-12T05:02:44.192Z,66.70
2023-08-12T05:03:20.434Z,65.99
2023-08-12T05:03:56.272Z,66.10
2023-08-12T05:04:30.924Z,66.49
2023-08-12T05:05:06.448Z,65.93
2023-08-12T05:05:42.031Z,66.62
2023-08-12T05:06:17.128Z,66.21
2023-08-12T05:06:51.275Z,66.36
2023-08-12T05:07:27.356Z,66.59
2023-08-12T05:08:01.305Z,65.77
2023-08-12T05:08:37.313Z,65.71
2023-08-12T05:09:13.003Z,65.33
2023-08-12T05:09:48.268Z,64.78
2023-08-12T05:10:22.335Z,64.79
2023-08-12T05:11:30.740Z,64.46
2023-08-12T05:12:06.340Z,64.25
2023-08-12T05:12:39.999Z,63.42
2023-08-12T05:13:13.878Z,62.38
2023-08-12T05:13:48.902Z,61.73
2023-08-12T05:14:24.425Z,61.26
2023-08-12T05:15:00.095Z,61.14
2023-08-12T05:16:06.834Z,60.80
2023-08-12T05:16:42.390Z,59.92
2023-08-12T05:17:19.017Z,59.44
2023-08-12T05:17:54.223Z,58.67
2023-08-12T05:18:30.302Z,59.43
2023-08-12T05:19:04.232Z,57.96
2023-08-12T05:19:38.717Z,58.45
2023-08-12T05:20:14.343Z,57.66
2023-08-12T05:20:50.290Z,57.09
2023-08-12T05:21:24.779Z,56.83
2023-08-12T05:22:00.321Z,56.87
2023-08-12T05:22:34.280Z,55.10
2023-08-12T05:23:11.102Z,55.13
2023-08-12T05:23:45.117Z,55.20
2023-08-12T05:24:18.288Z,54.29
2023-08-12T05:24:54.207Z,54.58
2023-08-12T05:25:28.904Z,54.94
2023-08-12T05:26:04.314Z,54.14
2023-08-12T05:30:06.589Z,52.03
2023-08-12T05:33:15.145Z,50.43
2023-08-12T05:34:21.255Z,50.21
2023-08-12T05:34:56.374Z,49.68
2023-08-12T05:35:30.347Z,49.25
2023-08-12T05:36:04.537Z,48.96
2023-08-12T05:36:38.312Z,49.08
2023-08-12T05:37:12.433Z,50.10
2023-08-12T05:37:46.211Z,49.59
2023-08-12T05:38:21.519Z,48.38
2023-08-12T05:38:55.154Z,49.27
2023-08-12T05:39:30.396Z,48.89
2023-08-12T05:40:09.260Z,48.64
2023-08-12T05:40:44.822Z,50.41
2023-08-12T05:41:20.159Z,49.02
2023-08-12T05:41:54.128Z,48.80
2023-08-12T05:42:29.064Z,49.28
2023-08-12T05:43:04.468Z,47.92
2023-08-12T05:43:38.117Z,48.34
2023-08-12T05:44:13.204Z,46.89
2023-08-12T05:44:47.220Z,47.27
2023-08-12T05:45:21.457Z,47.57
2023-08-12T05:45:56.150Z,48.06
2023-08-12T05:46:31.388Z,46.72
2023-08-12T05:47:07.096Z,46.98
2023-08-12T05:47:42.297Z,46.95
2023-08-12T05:48:16.084Z,46.96
2023-08-12T05:48:51.152Z,46.35
2023-08-12T05:49:29.090Z,46.51
2023-08-12T05:50:05.674Z,46.84
2023-08-12T05:50:43.239Z,46.17
2023-08-12T05:51:53.386Z,45.27
2023-08-12T05:52:28.147Z,45.43
2023-08-12T05:53:03.352Z,45.66
2023-08-12T05:53:37.150Z,45.27
2023-08-12T05:54:12.368Z,46.30
2023-08-12T05:54:47.080Z,46.39
2023-08-12T05:55:22.124Z,46.27
2023-08-12T05:55:57.232Z,46.22
2023-08-12T05:56:32.119Z,44.88
2023-08-12T05:57:08.337Z,45.20
2023-08-12T05:57:41.148Z,45.88
2023-08-12T05:58:16.171Z,45.26
2023-08-12T05:58:51.717Z,44.35
2023-08-12T05:59:27.146Z,44.71
2023-08-12T06:00:02.205Z,44.77
2023-08-12T06:00:37.451Z,45.32
2023-08-12T06:01:48.828Z,44.52
2023-08-12T06:02:24.208Z,45.00
2023-08-12T06:02:57.960Z,43.98
2023-08-12T06:03:31.635Z,44.72
2023-08-12T06:04:10.146Z,45.00
2023-08-12T06:04:45.387Z,44.25
2023-08-12T06:05:19.281Z,43.86
2023-08-12T06:05:55.449Z,44.64
2023-08-12T06:07:06.963Z,44.69
2023-08-12T06:07:42.432Z,43.96
2023-08-12T06:08:49.591Z,43.67
2023-08-12T06:09:25.662Z,43.39
2023-08-12T06:09:59.227Z,43.51
2023-08-12T06:10:32.222Z,43.58
2023-08-12T06:11:07.276Z,43.46
2023-08-12T06:11:43.567Z,43.18
2023-08-12T06:12:22.423Z,42.90
2023-08-12T06:12:56.201Z,42.70
2023-08-12T06:13:31.404Z,42.69
2023-08-12T06:14:05.433Z,42.24
2023-08-12T06:14:41.194Z,42.34
2023-08-12T06:15:49.452Z,42.01
2023-08-12T06:16:23.886Z,42.13
2023-08-12T06:17:32.347Z,42.50
2023-08-12T06:18:08.796Z,42.25
2023-08-12T06:18:44.382Z,42.40
2023-08-12T06:19:27.564Z,41.70
2023-08-12T06:20:03.888Z,41.88
2023-08-12T06:20:39.250Z,41.29
2023-08-12T06:21:11.485Z,41.57
2023-08-12T06:21:45.463Z,41.22
2023-08-12T06:22:19.306Z,41.57
2023-08-12T06:22:56.946Z,41.27
2023-08-12T06:23:32.616Z,42.12
2023-08-12T06:24:37.015Z,43.46
2023-08-12T06:25:46.731Z,41.72
2023-08-12T06:26:22.325Z,42.59
2023-08-12T06:26:59.861Z,42.09
2023-08-12T06:27:34.072Z,42.55
2023-08-12T06:28:10.488Z,42.23
2023-08-12T06:28:43.361Z,41.90
2023-08-12T06:29:19.559Z,42.36
2023-08-12T06:29:58.145Z,42.30
2023-08-12T06:30:33.313Z,41.61
2023-08-12T06:31:07.245Z,41.69
2023-08-12T06:31:42.453Z,42.15
2023-08-12T06:32:16.329Z,41.57
2023-08-12T06:33:25.211Z,40.46
2023-08-12T06:34:00.735Z,40.52
2023-08-12T06:34:35.852Z,40.64
2023-08-12T06:35:11.966Z,39.69
2023-08-12T06:35:50.713Z,41.04
2023-08-12T06:36:59.808Z,40.53
2023-08-12T06:37:38.172Z,40.11
2023-08-12T06:38:46.425Z,39.68
2023-08-12T06:39:21.297Z,39.32
2023-08-12T06:39:57.377Z,39.88
2023-08-12T06:40:32.221Z,39.92
2023-08-12T06:41:12.459Z,39.43
2023-08-12T06:41:52.236Z,39.05
2023-08-12T06:42:27.143Z,38.96
2023-08-12T06:43:05.362Z,38.99
2023-08-12T06:43:39.245Z,40.93
2023-08-12T06:44:11.303Z,38.92
2023-08-12T06:45:18.157Z,38.12
2023-08-12T06:45:51.448Z,39.61
2023-08-12T06:46:25.521Z,39.31
2023-08-12T06:46:59.359Z,39.16
2023-08-12T06:47:32.612Z,38.80
2023-08-12T06:48:06.824Z,39.07
2023-08-12T06:48:42.223Z,38.76
2023-08-12T06:49:46.085Z,41.02
2023-08-12T06:50:53.788Z,38.61
2023-08-12T06:51:29.184Z,38.79
2023-08-12T06:52:01.367Z,39.69
2023-08-12T06:53:10.639Z,40.90
2023-08-12T06:53:46.327Z,39.78
2023-08-12T06:54:20.406Z,38.33
2023-08-12T06:54:54.265Z,39.10
2023-08-12T06:55:29.519Z,38.04
2023-08-12T06:56:05.907Z,37.74
2023-08-12T06:56:37.933Z,38.12
2023-08-12T06:57:17.503Z,38.30
2023-08-12T06:57:53.972Z,37.65
2023-08-12T06:58:29.493Z,37.41
2023-08-12T06:59:01.623Z,37.58
2023-08-12T06:59:33.715Z,37.04
2023-08-12T07:00:09.882Z,37.18
2023-08-12T07:00:42.814Z,38.15
2023-08-12T07:01:15.892Z,35.95
2023-08-12T07:02:24.183Z,36.35
2023-08-12T07:03:02.246Z,35.95
2023-08-12T07:03:46.519Z,35.31
2023-08-12T07:04:22.258Z,34.17
2023-08-12T07:04:57.500Z,35.64
2023-08-12T07:05:33.655Z,36.64
2023-08-12T07:06:05.665Z,35.23
2023-08-12T07:07:14.300Z,36.21
2023-08-12T07:08:23.071Z,36.42
2023-08-12T07:08:55.241Z,35.10
2023-08-12T07:09:27.612Z,36.43
2023-08-12T07:10:00.873Z,35.89
2023-08-12T07:10:33.228Z,36.26
2023-08-12T07:11:08.861Z,37.14
2023-08-12T07:11:43.435Z,37.16
2023-08-12T07:12:15.435Z,36.46
2023-08-12T07:13:20.821Z,36.96
2023-08-12T07:13:52.930Z,36.88
2023-08-12T07:14:25.021Z,37.39
2023-08-12T07:14:57.229Z,35.95
2023-08-12T07:16:03.427Z,36.74
2023-08-12T07:16:35.534Z,36.33
2023-08-12T07:17:10.480Z,36.97
2023-08-12T07:17:44.372Z,37.21
2023-08-12T07:18:16.876Z,35.00
2023-08-12T07:18:52.742Z,35.98
2023-08-12T07:19:25.161Z,37.06
2023-08-12T07:19:57.705Z,35.35
2023-08-12T07:20:44.497Z,35.38
2023-08-12T07:21:16.607Z,35.31
2023-08-12T07:21:48.903Z,36.17
2023-08-12T07:22:21.722Z,35.71
2023-08-12T07:22:53.693Z,36.07
2023-08-12T07:24:07.905Z,36.44
2023-08-12T07:25:12.283Z,36.80
2023-08-12T07:26:17.950Z,35.37
2023-08-12T07:26:49.952Z,36.30
2023-08-12T07:27:22.122Z,36.40
2023-08-12T07:27:54.380Z,36.72
2023-08-12T07:28:59.364Z,35.90
2023-08-12T07:29:31.441Z,36.85
2023-08-12T07:30:04.381Z,37.09
2023-08-12T07:30:37.752Z,36.33
2023-08-12T07:31:15.938Z,37.97
2023-08-12T07:31:57.473Z,35.35
2023-08-12T07:32:29.874Z,36.15
2023-08-12T07:34:22.495Z,34.38
2023-08-12T07:34:54.508Z,34.13
2023-08-12T07:35:26.556Z,33.94
2023-08-12T07:36:35.236Z,32.95
2023-08-12T07:37:12.030Z,35.09
2023-08-12T07:37:45.337Z,34.84
2023-08-12T07:38:18.267Z,35.03
2023-08-12T07:39:25.741Z,34.44
2023-08-12T07:39:57.668Z,35.38
2023-08-12T07:40:29.625Z,35.07
2023-08-12T07:41:02.095Z,35.12
2023-08-12T07:42:07.702Z,34.30
2023-08-12T07:42:40.377Z,34.32
2023-08-12T07:43:12.383Z,33.98
2023-08-12T07:45:03.461Z,33.24
2023-08-12T07:45:35.595Z,33.69
2023-08-12T07:46:10.349Z,34.90
2023-08-12T07:46:42.779Z,34.08
2023-08-12T07:47:16.475Z,33.40
2023-08-12T07:47:48.524Z,34.35
2023-08-12T07:48:56.851Z,31.77
2023-08-12T07:49:29.063Z,31.98
2023-08-12T07:50:05.795Z,33.61
2023-08-12T07:50:38.196Z,32.17
2023-08-12T07:51:10.835Z,32.25
2023-08-12T07:51:42.918Z,31.69
2023-08-12T07:52:51.515Z,32.11
2023-08-12T07:53:23.600Z,31.60
2023-08-12T07:53:56.915Z,30.70
2023-08-12T07:55:02.660Z,30.14
2023-08-12T07:55:36.211Z,30.09
2023-08-12T07:56:08.341Z,30.61
2023-08-12T07:57:17.398Z,29.53
2023-08-12T07:57:49.469Z,29.14
2023-08-12T07:58:22.551Z,28.36
2023-08-12T07:58:54.670Z,28.35
2023-08-12T07:59:27.135Z,28.70
2023-08-12T08:00:34.140Z,27.90
2023-08-12T08:01:09.800Z,28.08
2023-08-12T08:01:41.924Z,27.89
2023-08-12T08:02:14.266Z,28.67
2023-08-12T08:02:46.597Z,28.25
2023-08-12T08:03:18.868Z,29.35
2023-08-12T08:03:50.939Z,29.51
2023-08-12T08:04:22.858Z,29.97
2023-08-12T08:04:55.302Z,29.41
2023-08-12T08:05:27.692Z,30.66
2023-08-12T08:05:59.813Z,29.56
2023-08-12T08:06:31.856Z,28.94
2023-08-12T08:07:04.622Z,29.55
2023-08-12T08:07:36.718Z,30.26
2023-08-12T08:08:09.605Z,29.14
2023-08-12T08:08:41.569Z,29.62
2023-08-12T08:09:14.413Z,29.01
2023-08-12T08:09:46.997Z,28.92
2023-08-12T08:10:20.204Z,28.45
2023-08-12T08:10:52.461Z,29.27
2023-08-12T08:12:15.543Z,28.17
2023-08-12T08:12:51.839Z,27.52
2023-08-12T08:13:23.918Z,26.68
2023-08-12T08:13:57.045Z,27.78
2023-08-12T08:14:30.060Z,28.17
2023-08-12T08:15:02.140Z,26.80
2023-08-12T08:15:34.135Z,27.31
2023-08-12T08:16:17.197Z,26.79
2023-08-12T08:16:49.556Z,27.30
2023-08-12T08:17:21.632Z,28.13
2023-08-12T08:17:55.301Z,27.43
2023-08-12T08:18:27.542Z,27.00
2023-08-12T08:18:59.604Z,27.78
2023-08-12T08:19:31.849Z,27.91
2023-08-12T08:20:04.443Z,27.07
2023-08-12T08:20:36.894Z,27.70
2023-08-12T08:21:08.832Z,27.28